Time;durP1;ratioP1;P1;durP2;ratioP2;P2;SDS_P1;SDS_P2;PMS_P1;PMS_P2;Temp;Humidity;BMP_temperature;BMP_pressure;BME280_temperature;BME280_humidity;BME280_pressure;Samples;Min_cycle;Max_cycle;Signal;HPM_P1;HPM_P2
2022/12/28 09:12:37;;;;;;;1.67;1.10;;;9.10;99.90;;;;;;4896346;29;20225;-80
2022/12/28 09:15:04;;;;;;;2.00;1.10;;;9.10;99.90;;;;;;4897914;29;20681;-77
2022/12/28 09:17:31;;;;;;;3.10;1.17;;;9.20;99.90;;;;;;4898800;29;20593;-76
2022/12/28 09:19:58;;;;;;;2.77;1.10;;;9.20;99.90;;;;;;4898585;29;20210;-76
2022/12/28 09:22:24;;;;;;;2.03;1.07;;;9.10;99.90;;;;;;4898334;29;20574;-78
2022/12/28 09:24:51;;;;;;;2.20;0.90;;;9.10;99.90;;;;;;4898595;29;20218;-82
2022/12/28 09:27:18;;;;;;;2.67;1.23;;;9.20;99.90;;;;;;4898397;29;20226;-74
2022/12/28 09:29:46;;;;;;;3.30;1.30;;;9.20;99.90;;;;;;4898637;29;20210;-81
2022/12/28 09:32:13;;;;;;;4.93;1.37;;;9.20;99.90;;;;;;4898425;29;20573;-81
2022/12/28 09:34:40;;;;;;;5.97;1.40;;;9.30;99.90;;;;;;4898226;29;20747;-81
2022/12/28 09:37:07;;;;;;;4.03;1.23;;;9.20;99.90;;;;;;4898203;29;20594;-81
2022/12/28 09:39:34;;;;;;;4.07;1.20;;;9.20;99.90;;;;;;4898044;29;20221;-82
2022/12/28 09:42:06;;;;;;;5.27;1.33;;;9.20;99.90;;;;;;4898152;29;20217;-81
2022/12/28 09:44:48;;;;;;;4.17;1.20;;;9.20;99.90;;;;;;4898093;29;20569;-80
2022/12/28 09:47:21;;;;;;;1.70;1.10;;;9.30;99.90;;;;;;4898202;29;20230;-82
2022/12/28 09:50:06;;;;;;;1.27;0.93;;;9.30;99.90;;;;;;4896460;29;20210;-75
2022/12/28 09:52:36;;;;;;;3.50;1.57;;;9.30;99.90;;;;;;4878004;29;20218;-77
2022/12/28 09:55:13;;;;;;;1.93;1.10;;;9.30;99.90;;;;;;4878154;29;20207;-83
2022/12/28 09:57:44;;;;;;;1.83;0.87;;;9.30;99.90;;;;;;4877864;29;20609;-78
2022/12/28 10:00:19;;;;;;;1.70;0.97;;;9.30;99.90;;;;;;4882713;29;20214;-78
2022/12/28 10:02:50;;;;;;;2.47;1.10;;;9.30;99.90;;;;;;4905301;29;20216;-75
2022/12/28 10:05:17;;;;;;;3.13;0.90;;;9.40;99.90;;;;;;4915708;29;20672;-80
2022/12/28 10:07:44;;;;;;;1.27;0.83;;;9.40;99.90;;;;;;4901528;29;20260;-77
2022/12/28 10:10:16;;;;;;;2.90;1.23;;;9.40;99.90;;;;;;4901056;29;20236;-75
2022/12/28 10:12:43;;;;;;;2.10;1.00;;;9.40;99.90;;;;;;4901489;29;20221;-77
2022/12/28 10:15:12;;;;;;;3.13;1.00;;;9.50;99.90;;;;;;4901507;29;20218;-76
2022/12/28 10:17:42;;;;;;;4.07;1.10;;;9.50;99.90;;;;;;4901639;29;20230;-77
2022/12/28 10:20:16;;;;;;;3.47;0.93;;;9.60;99.90;;;;;;4901317;29;20214;-78
2022/12/28 10:22:44;;;;;;;4.10;1.20;;;9.60;99.90;;;;;;4901515;29;20213;-76
2022/12/28 10:25:14;;;;;;;4.77;1.00;;;9.60;99.90;;;;;;4901604;29;20217;-76
2022/12/28 10:27:41;;;;;;;2.70;1.10;;;9.60;99.90;;;;;;4901102;29;20231;-76
2022/12/28 10:30:16;;;;;;;1.67;1.07;;;9.60;99.90;;;;;;4901176;29;20210;-76
2022/12/28 10:32:51;;;;;;;5.87;0.90;;;9.60;99.90;;;;;;4901010;29;20661;-76
2022/12/28 10:35:29;;;;;;;0.63;0.47;;;9.60;99.90;;;;;;4901327;29;20214;-76
2022/12/28 10:38:02;;;;;;;1.63;0.87;;;9.60;99.90;;;;;;4901073;29;20234;-76
2022/12/28 10:40:33;;;;;;;2.37;0.83;;;9.60;99.90;;;;;;4901243;29;20306;-74
2022/12/28 10:43:00;;;;;;;3.90;1.10;;;9.60;99.90;;;;;;4896034;29;20736;-71
2022/12/28 10:45:35;;;;;;;4.00;1.00;;;9.60;99.90;;;;;;4901803;29;20662;-73
2022/12/28 10:48:09;;;;;;;5.03;1.40;;;9.60;99.90;;;;;;4900626;29;20238;-71
2022/12/28 10:50:51;;;;;;;1.37;0.80;;;9.60;99.90;;;;;;4899235;29;20225;-72
2022/12/28 10:53:26;;;;;;;2.20;1.00;;;9.60;99.90;;;;;;4900340;29;20214;-73
2022/12/28 10:56:06;;;;;;;3.33;0.90;;;9.60;99.90;;;;;;4900500;29;20210;-72
2022/12/28 10:58:33;;;;;;;3.97;0.97;;;9.70;99.90;;;;;;4900235;29;20210;-73
2022/12/28 11:01:03;;;;;;;4.93;0.90;;;9.70;99.90;;;;;;4900020;29;20218;-72
2022/12/28 11:03:34;;;;;;;1.73;0.80;;;9.70;99.90;;;;;;4900002;29;20207;-72
2022/12/28 11:06:13;;;;;;;4.90;0.97;;;9.70;99.90;;;;;;4900463;29;20218;-73
2022/12/28 11:08:40;;;;;;;2.00;0.83;;;9.70;99.90;;;;;;4900140;29;20687;-73
2022/12/28 11:11:16;;;;;;;2.37;1.20;;;9.80;99.90;;;;;;4900027;29;20712;-74
2022/12/28 11:13:45;;;;;;;1.73;0.80;;;9.80;99.90;;;;;;4899806;29;20229;-73
2022/12/28 11:16:14;;;;;;;2.27;0.90;;;9.90;99.90;;;;;;4899240;29;20234;-74
2022/12/28 11:18:42;;;;;;;1.50;0.80;;;10.00;99.90;;;;;;4900376;29;20217;-74
2022/12/28 11:21:12;;;;;;;1.30;1.20;;;10.00;99.90;;;;;;4900252;29;20206;-73
2022/12/28 11:23:39;;;;;;;2.27;0.90;;;10.00;99.90;;;;;;4899808;29;20207;-73
2022/12/28 11:26:11;;;;;;;6.00;1.10;;;10.00;99.90;;;;;;4899703;29;20221;-72
2022/12/28 11:28:41;;;;;;;1.87;0.80;;;10.10;99.90;;;;;;4899682;29;20206;-72
2022/12/28 11:31:13;;;;;;;2.07;0.90;;;10.10;99.90;;;;;;4899746;29;20297;-72
2022/12/28 11:33:43;;;;;;;2.93;1.10;;;10.20;99.90;;;;;;4900098;29;20217;-71
2022/12/28 11:36:15;;;;;;;6.47;0.90;;;10.10;99.90;;;;;;4899759;29;20334;-72
2022/12/28 11:38:43;;;;;;;2.13;0.73;;;10.10;99.90;;;;;;4893741;29;20211;-76
2022/12/28 11:41:11;;;;;;;2.73;0.97;;;10.20;99.90;;;;;;4886966;29;20218;-75
2022/12/28 11:43:49;;;;;;;2.20;0.80;;;10.20;99.90;;;;;;4881642;29;20270;-74
2022/12/28 11:46:39;;;;;;;6.10;1.17;;;10.10;99.90;;;;;;4899687;29;20232;-74
2022/12/28 11:49:26;;;;;;;2.40;0.97;;;10.10;99.90;;;;;;4899514;29;20210;-72
2022/12/28 11:52:45;;;;;;;2.50;0.90;;;10.10;99.90;;;;;;4899335;29;20709;-73
2022/12/28 11:55:45;;;;;;;4.60;1.10;;;10.10;99.90;;;;;;4899408;29;20214;-70
2022/12/28 11:58:48;;;;;;;0.67;0.67;;;10.20;99.90;;;;;;4880917;29;20260;-73
2022/12/28 12:01:43;;;;;;;2.47;1.07;;;10.20;99.90;;;;;;4880629;29;20701;-68
2022/12/28 12:04:37;;;;;;;2.10;1.00;;;10.20;99.90;;;;;;4880481;29;20207;-68
2022/12/28 12:07:43;;;;;;;1.33;0.77;;;10.30;99.90;;;;;;4897564;29;20293;-69
2022/12/28 12:10:35;;;;;;;3.73;0.80;;;10.30;99.90;;;;;;4880571;29;20211;-73
2022/12/28 12:13:18;;;;;;;2.20;1.10;;;10.30;99.90;;;;;;4898203;29;20220;-72
2022/12/28 12:15:46;;;;;;;1.27;0.70;;;10.30;99.90;;;;;;4907210;29;20217;-69
2022/12/28 12:18:19;;;;;;;3.47;1.07;;;10.30;99.90;;;;;;4916199;29;20237;-68
2022/12/28 12:20:59;;;;;;;2.43;0.87;;;10.30;99.90;;;;;;4880460;29;20211;-70
2022/12/28 12:23:32;;;;;;;3.57;0.80;;;10.40;99.90;;;;;;4880494;29;20266;-68
2022/12/28 12:26:05;;;;;;;3.37;0.90;;;10.40;99.90;;;;;;4879887;29;20222;-71
2022/12/28 12:28:37;;;;;;;2.33;0.70;;;10.30;99.90;;;;;;4880293;29;20207;-69
2022/12/28 12:31:08;;;;;;;0.93;0.60;;;10.30;99.90;;;;;;4896094;29;20238;-68
2022/12/28 12:33:37;;;;;;;1.77;0.80;;;10.40;99.90;;;;;;4898892;29;20218;-70
2022/12/28 12:36:20;;;;;;;3.03;0.70;;;10.30;99.90;;;;;;4898450;29;20297;-69
2022/12/28 12:39:22;;;;;;;2.93;0.87;;;10.40;99.90;;;;;;4897906;29;20670;-69
2022/12/28 12:41:58;;;;;;;1.17;0.83;;;10.30;99.90;;;;;;4898445;29;20217;-70
2022/12/28 12:44:33;;;;;;;1.57;0.80;;;10.30;99.90;;;;;;4898286;29;20206;-69
2022/12/28 12:47:26;;;;;;;1.80;0.73;;;10.30;99.90;;;;;;4898082;29;20230;-69
2022/12/28 12:50:12;;;;;;;3.03;1.00;;;10.40;99.90;;;;;;4897847;29;20254;-71
2022/12/28 12:52:53;;;;;;;4.27;0.70;;;10.40;99.90;;;;;;4897922;29;20242;-70
2022/12/28 12:55:29;;;;;;;2.33;1.00;;;10.40;99.90;;;;;;4897777;29;20691;-71
2022/12/28 12:58:02;;;;;;;0.93;0.50;;;10.40;99.90;;;;;;4897401;29;20321;-69
2022/12/28 13:00:40;;;;;;;2.50;0.80;;;10.50;99.90;;;;;;4897825;29;20210;-70
2022/12/28 13:03:23;;;;;;;1.27;0.50;;;10.50;99.90;;;;;;4898194;29;20214;-69
2022/12/28 13:05:53;;;;;;;3.67;0.70;;;10.60;99.90;;;;;;4897516;29;20670;-70
2022/12/28 13:08:26;;;;;;;1.00;0.60;;;10.60;99.90;;;;;;4897144;29;20203;-71
2022/12/28 13:10:54;;;;;;;1.80;0.70;;;10.60;99.90;;;;;;4897173;29;20221;-70
2022/12/28 13:13:30;;;;;;;4.10;1.53;;;10.60;99.90;;;;;;4897844;29;20207;-71
2022/12/28 13:16:02;;;;;;;2.13;1.17;;;10.60;99.90;;;;;;4897411;29;20752;-71
2022/12/28 13:18:28;;;;;;;3.57;0.80;;;10.70;99.90;;;;;;4896995;29;20356;-71
2022/12/28 13:20:57;;;;;;;1.43;0.70;;;10.70;99.90;;;;;;4897006;29;20206;-71
2022/12/28 13:23:26;;;;;;;1.00;0.60;;;10.70;99.90;;;;;;4896630;29;20210;-71
2022/12/28 13:25:56;;;;;;;2.07;0.77;;;10.60;99.90;;;;;;4896606;29;20206;-71
2022/12/28 13:28:28;;;;;;;3.23;0.80;;;10.60;99.90;;;;;;4897130;29;20218;-71
2022/12/28 13:30:58;;;;;;;4.40;1.10;;;10.60;99.90;;;;;;4895794;29;20210;-71
2022/12/28 13:33:25;;;;;;;3.97;1.13;;;10.60;99.90;;;;;;4897159;29;20234;-71
2022/12/28 13:36:04;;;;;;;2.30;0.83;;;10.70;99.90;;;;;;4896732;29;20206;-70
2022/12/28 13:38:33;;;;;;;1.50;0.80;;;10.80;99.90;;;;;;4895435;29;20206;-70
2022/12/28 13:41:01;;;;;;;2.67;0.50;;;10.90;99.90;;;;;;4897806;29;20211;-71
2022/12/28 13:43:55;;;;;;;0.90;0.60;;;11.10;99.90;;;;;;4897296;29;20678;-70
2022/12/28 13:46:23;;;;;;;6.50;0.93;;;11.20;99.90;;;;;;4897331;29;20226;-70
2022/12/28 13:48:53;;;;;;;1.20;0.60;;;11.10;99.90;;;;;;4898003;29;20218;-70
2022/12/28 13:51:21;;;;;;;2.20;0.60;;;11.10;99.90;;;;;;4898025;29;20210;-71
2022/12/28 13:53:54;;;;;;;2.03;0.60;;;11.10;99.90;;;;;;4897695;29;20289;-71
2022/12/28 13:56:22;;;;;;;1.00;0.60;;;11.10;99.90;;;;;;4897550;29;20689;-72
2022/12/28 13:58:53;;;;;;;3.00;0.60;;;11.30;99.90;;;;;;4897732;29;20207;-74
2022/12/28 14:01:22;;;;;;;5.37;0.77;;;11.30;99.90;;;;;;4897981;29;20206;-73
2022/12/28 14:03:49;;;;;;;3.13;0.77;;;11.30;99.90;;;;;;4897710;29;20210;-72
2022/12/28 14:06:18;;;;;;;2.27;0.50;;;11.20;99.90;;;;;;4897453;29;20240;-72
2022/12/28 14:08:46;;;;;;;4.30;0.60;;;11.20;99.90;;;;;;4897697;29;20585;-72
2022/12/28 14:11:15;;;;;;;2.80;0.67;;;11.20;99.90;;;;;;4897642;29;20644;-72
2022/12/28 14:13:42;;;;;;;4.00;0.90;;;11.20;99.90;;;;;;4897844;29;20221;-72
2022/12/28 14:16:10;;;;;;;1.83;0.70;;;11.20;99.90;;;;;;4897846;29;20235;-72
2022/12/28 14:18:37;;;;;;;0.50;0.43;;;11.20;99.90;;;;;;4897773;29;20206;-74
2022/12/28 14:21:06;;;;;;;1.07;0.60;;;11.10;99.90;;;;;;4898082;29;20213;-72
2022/12/28 14:23:34;;;;;;;2.93;0.70;;;11.10;99.90;;;;;;4897464;29;20301;-72
2022/12/28 14:26:04;;;;;;;3.50;0.70;;;11.00;99.90;;;;;;4897007;29;20309;-72
2022/12/28 14:28:36;;;;;;;1.60;0.80;;;11.00;99.90;;;;;;4898433;29;20221;-74
2022/12/28 14:31:05;;;;;;;3.97;0.60;;;10.90;99.90;;;;;;4900051;29;20293;-72
2022/12/28 14:33:35;;;;;;;1.90;0.70;;;10.90;99.90;;;;;;4899173;29;20242;-72
2022/12/28 14:36:04;;;;;;;2.50;0.57;;;11.00;99.90;;;;;;4900052;29;20217;-73
2022/12/28 14:38:34;;;;;;;3.93;0.60;;;11.00;99.90;;;;;;4897623;29;20217;-73
2022/12/28 14:41:02;;;;;;;1.33;0.87;;;11.00;99.90;;;;;;4897647;29;20581;-74
2022/12/28 14:43:33;;;;;;;1.37;0.67;;;10.90;99.90;;;;;;4897615;29;20305;-72
2022/12/28 14:46:15;;;;;;;2.30;0.70;;;10.70;99.90;;;;;;4897571;29;20236;-72
2022/12/28 14:48:43;;;;;;;1.47;0.60;;;10.70;99.90;;;;;;4897433;29;20404;-73
2022/12/28 14:51:28;;;;;;;1.27;0.67;;;10.70;99.90;;;;;;4899793;29;20622;-71
2022/12/28 14:54:19;;;;;;;3.23;0.90;;;10.70;99.90;;;;;;4900746;29;20241;-72
2022/12/28 14:56:49;;;;;;;3.57;0.83;;;10.70;99.90;;;;;;4900572;29;20356;-72
2022/12/28 14:59:22;;;;;;;0.80;0.50;;;10.60;99.90;;;;;;4900310;29;20226;-74
2022/12/28 15:01:48;;;;;;;6.13;0.87;;;10.60;99.90;;;;;;4900486;29;20692;-73
2022/12/28 15:04:27;;;;;;;1.27;0.90;;;10.60;99.90;;;;;;4900527;29;20210;-73
2022/12/28 15:06:54;;;;;;;2.13;0.90;;;10.60;99.90;;;;;;4901043;29;20253;-69
2022/12/28 15:09:21;;;;;;;3.53;0.60;;;10.60;99.90;;;;;;4900363;29;20213;-72
2022/12/28 15:11:48;;;;;;;0.93;0.67;;;10.50;99.90;;;;;;4900131;29;20222;-72
2022/12/28 15:14:15;;;;;;;1.00;0.70;;;10.50;99.90;;;;;;4900299;29;20229;-73
2022/12/28 15:16:43;;;;;;;2.27;0.70;;;10.50;99.90;;;;;;4900195;29;20294;-73
2022/12/28 15:19:10;;;;;;;1.27;0.60;;;10.50;99.90;;;;;;4900211;29;20690;-74
2022/12/28 15:21:37;;;;;;;3.00;0.67;;;10.40;99.90;;;;;;4900132;29;20245;-71
2022/12/28 15:24:04;;;;;;;1.47;0.73;;;10.40;99.90;;;;;;4895434;29;20206;-73
2022/12/28 15:26:31;;;;;;;2.47;0.80;;;10.40;99.90;;;;;;4899629;29;20236;-73
2022/12/28 15:28:58;;;;;;;4.47;1.20;;;10.40;99.90;;;;;;4900135;29;20206;-72
2022/12/28 15:31:24;;;;;;;2.60;1.00;;;10.30;99.90;;;;;;4899835;29;20202;-73
2022/12/28 15:33:53;;;;;;;3.47;1.00;;;10.30;99.90;;;;;;4899410;29;20329;-72
2022/12/28 15:36:21;;;;;;;3.50;1.50;;;10.30;99.90;;;;;;4899596;29;20244;-72
2022/12/28 15:38:48;;;;;;;4.30;1.90;;;10.20;99.90;;;;;;4899430;29;20233;-71
2022/12/28 15:44:02;;;;;;;3.87;1.30;;;10.10;99.90;;;;;;4886838;29;20226;-72
2022/12/28 15:46:29;;;;;;;5.33;1.87;;;10.10;99.90;;;;;;4899424;29;20320;-74
2022/12/28 15:48:57;;;;;;;3.23;1.10;;;10.10;99.90;;;;;;4899360;29;20209;-74
2022/12/28 15:51:24;;;;;;;1.77;0.90;;;10.00;99.90;;;;;;4899219;29;20240;-73
2022/12/28 15:53:51;;;;;;;1.93;0.90;;;10.00;99.90;;;;;;4893484;29;20249;-74
2022/12/28 15:56:21;;;;;;;0.87;0.60;;;10.00;99.90;;;;;;4897836;29;20240;-69
2022/12/28 15:58:47;;;;;;;2.40;1.03;;;10.00;99.90;;;;;;4897967;29;20729;-74
2022/12/28 16:01:14;;;;;;;2.17;1.10;;;9.90;99.90;;;;;;4896834;29;20215;-70
2022/12/28 16:03:41;;;;;;;3.83;0.83;;;9.90;99.90;;;;;;4897405;29;20297;-70
2022/12/28 16:06:09;;;;;;;2.10;1.07;;;9.90;99.90;;;;;;4912794;29;20210;-70
2022/12/28 16:08:36;;;;;;;4.13;1.63;;;9.90;99.90;;;;;;4916500;29;20240;-76
2022/12/28 16:11:09;;;;;;;2.40;1.20;;;9.90;99.90;;;;;;4916485;29;20669;-71
2022/12/28 16:13:36;;;;;;;3.77;1.73;;;9.80;99.90;;;;;;4905214;29;20234;-71
2022/12/28 16:16:05;;;;;;;3.20;1.23;;;9.80;99.90;;;;;;4897605;29;20218;-76
2022/12/28 16:18:32;;;;;;;3.43;1.20;;;9.80;99.90;;;;;;4898433;29;20210;-73
2022/12/28 16:21:00;;;;;;;2.33;1.00;;;9.80;99.90;;;;;;4898227;29;20210;-73
2022/12/28 16:23:30;;;;;;;1.63;0.80;;;9.80;99.90;;;;;;4897420;29;20237;-74
2022/12/28 16:25:57;;;;;;;5.00;1.40;;;9.80;99.90;;;;;;4897819;29;20266;-73
2022/12/28 16:28:24;;;;;;;3.57;1.00;;;9.80;99.90;;;;;;4897773;29;20217;-74
2022/12/28 16:30:51;;;;;;;2.33;1.00;;;9.70;99.90;;;;;;4897056;29;20210;-70
